Südanflug-Wetter

Südanflüge sind sowohl am Euroairport Basel-Mulhouse-Freiburg als auch am Flughafen Unique Zürich ein Thema für die Anwohner. In Basel hängen Südanflüge von den Windverhältnissen ab. Für den Euroairport Basel-Mulhouse-Freiburg bereitet MeteoNews deshalb aktuelle Winddaten auf, die direkt auf der Homepage des Flughafens eingebunden werden. Angaben zum Flughafen Zürich finden Sie hier.

In Zürich sind Südanflüge auf die Piste 34 möglich, wenn die horizontale Sichtweite mindestens 750 m beträgt und die Wolkenuntergrenze im Anflugsektor nicht tiefer als 300 Fuss (knapp 100 m) liegt (diese Werte gelten seit dem 1. November 2004).

Prognose für Südanflüge

Am Donnerstag sind Südanflüge möglich.
(Prognose ohne Gewähr. Die Vorhersage wird mehrmals täglich aktualisiert. Verantwortlicher Meteorologe: Reto Vögeli, 28.05.2020 04:44)

Analyse der letzten METAR-Messungen

Unser Tool wertet die letzten 20 offiziellen Wettermeldungen (METAR) des Flughafens Zürich aus und entscheidet aufgrund der beiden Werte für Sichtweite und Ceiling (Hauptwolkenuntergrenze), ob Südanflüge nach obiger Definition möglich wären. Allerdings repräsentiert der Wert für die Wolkenuntergrenze in der METAR-Meldung nicht die Bewölkung im Anflugsektor sondern generell um den Flughafen. Da über die Bewölkung im Anflugsektor kurzfristig aufgrund von Beobachtungen des Towers und von Piloten entschieden wird, kann die Angabe unseres Tools in gewissen Fällen von den realen Entscheiden der Flugsicherung abweichen.

Südanflüge Datum Uhrzeit Sichtweite Ceiling Vollständige METAR-Meldung
möglich 2020-05-28 04:50:00 > 10 km LSZH 280250Z VRB01KT CAVOK 07/05 Q1029 NOSIG
möglich 2020-05-28 04:20:00 > 10 km LSZH 280220Z 13002KT CAVOK 08/05 Q1029 NOSIG
möglich 2020-05-28 03:20:00 > 10 km LSZH 280120Z VRB01KT CAVOK 08/06 Q1029 NOSIG
möglich 2020-05-28 02:50:00 > 10 km LSZH 280050Z 34002KT CAVOK 08/05 Q1030 NOSIG
möglich 2020-05-28 01:50:00 > 10 km LSZH 272350Z 31002KT CAVOK 09/05 Q1030 NOSIG
möglich 2020-05-28 01:20:00 > 10 km LSZH 272320Z 02003KT CAVOK 10/06 Q1030 NOSIG
möglich 2020-05-28 00:50:00 > 10 km LSZH 272250Z VRB02KT CAVOK 10/06 Q1030 NOSIG
möglich 2020-05-28 00:20:00 > 10 km LSZH 272220Z VRB02KT CAVOK 10/06 Q1030 NOSIG
möglich 2020-05-27 23:50:00 > 10 km LSZH 272150Z 32002KT CAVOK 11/06 Q1030 NOSIG
möglich 2020-05-27 23:20:00 > 10 km LSZH 272120Z 32003KT CAVOK 11/05 Q1030 NOSIG
möglich 2020-05-27 22:50:00 > 10 km LSZH 272050Z 30003KT CAVOK 11/06 Q1030 NOSIG
möglich 2020-05-27 22:20:00 > 10 km LSZH 272020Z 33003KT CAVOK 13/05 Q1030 NOSIG
möglich 2020-05-27 21:50:00 > 10 km LSZH 271950Z VRB02KT CAVOK 14/05 Q1030 NOSIG
möglich 2020-05-27 21:20:00 > 10 km LSZH 271920Z 03003KT CAVOK 17/05 Q1030 NOSIG
möglich 2020-05-27 20:50:00 > 10 km LSZH 271850Z 08003KT CAVOK 19/02 Q1029 NOSIG
möglich 2020-05-27 20:20:00 > 10 km LSZH 271820Z 08004KT CAVOK 20/02 Q1029 NOSIG
möglich 2020-05-27 19:50:00 > 10 km LSZH 271750Z 08005KT CAVOK 21/03 Q1029 NOSIG
möglich 2020-05-27 19:20:00 > 10 km LSZH 271720Z 06006KT 030V130 CAVOK 21/02 Q1030 NOSIG
möglich 2020-05-27 18:50:00 > 10 km LSZH 271650Z 09005KT 060V130 CAVOK 21/03 Q1030 NOSIG
möglich 2020-05-27 18:20:00 > 10 km LSZH 271620Z 07006KT 030V110 CAVOK 21/02 Q1030 NOSIG